createdAt,value
2023-01-08T00:01:22.808Z,75.50
2023-01-08T00:03:51.705Z,75.50
2023-01-08T00:06:21.651Z,75.50
2023-01-08T00:08:50.102Z,75.50
2023-01-08T00:11:18.129Z,75.50
2023-01-08T00:13:46.161Z,75.50
2023-01-08T00:16:17.038Z,75.40
2023-01-08T00:18:46.908Z,75.30
2023-01-08T00:21:40.131Z,75.30
2023-01-08T00:24:08.262Z,75.20
2023-01-08T00:26:36.089Z,75.20
2023-01-08T00:29:04.095Z,75.20
2023-01-08T00:31:31.862Z,75.30
2023-01-08T00:33:59.826Z,75.40
2023-01-08T00:36:27.506Z,75.40
2023-01-08T00:38:55.483Z,75.50
2023-01-08T00:41:23.152Z,75.50
2023-01-08T00:43:51.391Z,75.40
2023-01-08T00:46:19.084Z,75.40
2023-01-08T00:48:47.041Z,75.30
2023-01-08T00:51:14.821Z,75.10
2023-01-08T00:53:42.866Z,75.00
2023-01-08T00:56:11.175Z,75.00
2023-01-08T00:58:39.403Z,75.00
2023-01-08T01:01:14.974Z,75.00
2023-01-08T01:03:43.502Z,75.20
2023-01-08T01:06:12.363Z,75.30
2023-01-08T01:08:40.958Z,75.70
2023-01-08T01:11:18.069Z,75.90
2023-01-08T01:13:46.195Z,75.80
2023-01-08T01:16:13.933Z,75.70
2023-01-08T01:18:41.951Z,75.70
2023-01-08T01:21:31.143Z,75.60
2023-01-08T01:24:03.895Z,75.70
2023-01-08T01:26:32.362Z,75.80
2023-01-08T01:29:01.076Z,75.80
2023-01-08T01:31:31.197Z,75.90
2023-01-08T01:33:59.836Z,75.90
2023-01-08T01:36:27.794Z,75.80
2023-01-08T01:38:58.099Z,75.90
2023-01-08T01:41:31.946Z,75.90
2023-01-08T01:44:21.481Z,75.90
2023-01-08T01:46:50.512Z,75.80
2023-01-08T01:49:23.170Z,75.80
2023-01-08T01:51:55.252Z,76.00
2023-01-08T01:54:23.978Z,76.00
2023-01-08T01:56:51.710Z,75.90
2023-01-08T01:59:19.939Z,76.00
2023-01-08T02:01:48.142Z,76.10
2023-01-08T02:04:16.568Z,76.10
2023-01-08T02:06:55.485Z,76.20
2023-01-08T02:09:37.624Z,76.20
2023-01-08T02:12:17.898Z,76.10
2023-01-08T02:15:06.075Z,76.10
2023-01-08T02:17:45.667Z,76.00
2023-01-08T02:20:22.364Z,75.90
2023-01-08T02:23:05.246Z,75.90
2023-01-08T02:25:37.211Z,75.80
2023-01-08T02:28:10.096Z,75.80
2023-01-08T02:30:38.283Z,75.80
2023-01-08T02:33:06.026Z,75.80
2023-01-08T02:35:52.372Z,75.70
2023-01-08T02:38:20.211Z,75.80
2023-01-08T02:41:08.696Z,75.80
2023-01-08T02:43:47.128Z,75.90
2023-01-08T02:46:22.509Z,76.10
2023-01-08T02:48:54.867Z,76.10
2023-01-08T02:51:32.661Z,76.30
2023-01-08T02:54:05.031Z,76.50
2023-01-08T02:56:46.677Z,76.60
2023-01-08T02:59:16.278Z,76.70
2023-01-08T03:01:45.976Z,76.60
2023-01-08T03:04:22.450Z,76.50
2023-01-08T03:06:51.144Z,76.50
2023-01-08T03:09:19.865Z,76.50
2023-01-08T03:11:54.464Z,76.60
2023-01-08T03:14:49.756Z,76.50
2023-01-08T03:17:33.329Z,76.50
2023-01-08T03:20:07.885Z,76.40
2023-01-08T03:22:39.834Z,76.40
2023-01-08T03:25:08.831Z,76.50
2023-01-08T03:27:44.730Z,76.50
2023-01-08T03:30:14.490Z,76.40
2023-01-08T03:32:44.458Z,76.40
2023-01-08T03:35:15.533Z,76.40
2023-01-08T03:37:45.583Z,76.40
2023-01-08T03:40:37.174Z,76.50
2023-01-08T03:43:05.305Z,76.30
2023-01-08T03:45:34.299Z,76.30
2023-01-08T03:48:03.892Z,76.40
2023-01-08T03:50:32.763Z,76.30
2023-01-08T03:53:01.056Z,76.40
2023-01-08T03:55:28.860Z,76.50
2023-01-08T03:57:56.852Z,76.50
2023-01-08T04:00:24.663Z,76.50
2023-01-08T04:02:52.635Z,76.60
2023-01-08T04:05:20.306Z,76.60
2023-01-08T04:07:48.222Z,76.60
2023-01-08T04:10:16.065Z,76.50
2023-01-08T04:12:44.175Z,76.40
2023-01-08T04:15:12.090Z,76.40
2023-01-08T04:17:40.048Z,76.40
2023-01-08T04:20:08.715Z,76.40
2023-01-08T04:22:36.752Z,76.40
2023-01-08T04:25:04.794Z,76.40
2023-01-08T04:27:32.825Z,76.50
2023-01-08T04:30:00.466Z,76.40
2023-01-08T04:32:28.454Z,76.50
2023-01-08T04:34:56.202Z,76.50
2023-01-08T04:37:24.188Z,76.40
2023-01-08T04:39:51.904Z,76.20
2023-01-08T04:42:19.907Z,76.30
2023-01-08T04:44:47.577Z,76.50
2023-01-08T04:47:15.767Z,76.70
2023-01-08T04:49:43.521Z,76.80
2023-01-08T04:52:11.493Z,76.80
2023-01-08T04:54:39.115Z,76.90
2023-01-08T04:57:07.020Z,76.90
2023-01-08T04:59:34.732Z,76.90
2023-01-08T05:02:02.933Z,76.80
2023-01-08T05:04:30.641Z,76.70
2023-01-08T05:06:58.585Z,76.70
2023-01-08T05:09:26.285Z,76.70
2023-01-08T05:11:54.264Z,76.80
2023-01-08T05:14:22.038Z,77.00
2023-01-08T05:16:49.949Z,77.00
2023-01-08T05:19:17.649Z,76.90
2023-01-08T05:21:45.724Z,77.00
2023-01-08T05:24:13.463Z,77.00
2023-01-08T05:26:41.517Z,77.00
2023-01-08T05:29:10.809Z,77.10
2023-01-08T05:31:38.858Z,76.90
2023-01-08T05:34:06.496Z,76.90
2023-01-08T05:36:34.443Z,76.90
2023-01-08T05:39:02.089Z,77.00
2023-01-08T05:41:30.239Z,76.90
2023-01-08T05:43:57.877Z,76.90
2023-01-08T05:46:25.833Z,76.80
2023-01-08T05:48:53.520Z,76.80
2023-01-08T05:51:21.524Z,76.90
2023-01-08T05:53:49.237Z,76.90
2023-01-08T05:56:17.331Z,76.80
2023-01-08T05:58:45.037Z,76.80
2023-01-08T06:01:16.484Z,76.80
2023-01-08T06:03:44.227Z,76.90
2023-01-08T06:06:13.335Z,76.90
2023-01-08T06:08:41.125Z,76.80
2023-01-08T06:11:12.204Z,76.80
2023-01-08T06:13:43.795Z,76.80
2023-01-08T06:16:12.412Z,76.70
2023-01-08T06:18:40.633Z,76.70
2023-01-08T06:21:08.799Z,76.70
2023-01-08T06:23:36.467Z,76.70
2023-01-08T06:26:04.838Z,76.70
2023-01-08T06:28:32.980Z,76.60
2023-01-08T06:31:04.902Z,76.70
2023-01-08T06:33:33.461Z,76.70
2023-01-08T06:36:05.443Z,76.70
2023-01-08T06:38:37.887Z,76.60
2023-01-08T06:41:08.775Z,76.60
2023-01-08T06:43:38.026Z,76.60
2023-01-08T06:46:07.129Z,76.60
2023-01-08T06:48:36.002Z,76.60
2023-01-08T06:51:04.649Z,76.60
2023-01-08T06:53:32.693Z,76.60
2023-01-08T06:56:00.460Z,76.50
2023-01-08T06:58:29.255Z,76.50
2023-01-08T07:00:59.148Z,76.60
2023-01-08T07:03:27.558Z,76.60
2023-01-08T07:05:56.279Z,76.60
2023-01-08T07:08:24.394Z,76.60
2023-01-08T07:10:52.336Z,76.60
2023-01-08T07:13:22.871Z,76.50
2023-01-08T07:15:50.669Z,76.60
2023-01-08T07:18:18.859Z,76.60
2023-01-08T07:20:48.515Z,76.50
2023-01-08T07:23:16.815Z,76.50
2023-01-08T07:25:44.526Z,76.50
2023-01-08T07:28:13.699Z,76.50
2023-01-08T07:30:41.513Z,76.40
2023-01-08T07:33:09.648Z,76.40
2023-01-08T07:35:39.150Z,76.40
2023-01-08T07:38:07.372Z,76.40
2023-01-08T07:40:35.950Z,76.40
2023-01-08T07:43:05.359Z,76.40
2023-01-08T07:45:33.022Z,76.50
2023-01-08T07:48:01.250Z,76.50
2023-01-08T07:50:29.129Z,76.60
2023-01-08T07:53:01.990Z,76.60
2023-01-08T07:55:31.321Z,76.60
2023-01-08T07:57:59.601Z,76.60
2023-01-08T08:00:28.074Z,76.60
2023-01-08T08:02:56.265Z,76.50
2023-01-08T08:05:26.369Z,76.50
2023-01-08T08:07:54.325Z,76.50
2023-01-08T08:10:21.987Z,76.50
2023-01-08T08:12:49.977Z,76.50
2023-01-08T08:15:17.697Z,76.50
2023-01-08T08:17:49.114Z,76.50
2023-01-08T08:20:20.016Z,76.40
2023-01-08T08:22:49.092Z,76.40
2023-01-08T08:25:17.328Z,76.40
2023-01-08T08:27:45.651Z,76.30
2023-01-08T08:30:14.029Z,76.30
2023-01-08T08:32:42.165Z,76.30
2023-01-08T08:35:10.268Z,76.20
2023-01-08T08:37:38.324Z,76.20
2023-01-08T08:40:06.636Z,76.20
2023-01-08T08:42:34.720Z,76.20
2023-01-08T08:45:02.513Z,76.20
2023-01-08T08:47:30.776Z,76.20
2023-01-08T08:49:58.491Z,76.10
2023-01-08T08:52:26.571Z,76.20
2023-01-08T08:54:54.358Z,76.20
2023-01-08T08:57:24.760Z,76.20
2023-01-08T08:59:52.577Z,76.10
2023-01-08T09:02:20.739Z,75.90
2023-01-08T09:04:48.768Z,75.80
2023-01-08T09:07:16.897Z,75.90
2023-01-08T09:09:44.686Z,75.90
2023-01-08T09:12:12.858Z,75.90
2023-01-08T09:14:40.515Z,75.90
2023-01-08T09:17:08.640Z,75.90
2023-01-08T09:19:36.628Z,75.90
2023-01-08T09:22:04.734Z,75.90
2023-01-08T09:24:33.844Z,75.90
2023-01-08T09:27:01.934Z,76.00
2023-01-08T09:29:29.959Z,76.10
2023-01-08T09:32:00.684Z,76.10
2023-01-08T09:34:30.033Z,75.90
2023-01-08T09:36:58.262Z,75.90
2023-01-08T09:39:26.192Z,76.00
2023-01-08T09:41:55.969Z,75.80
2023-01-08T09:44:30.205Z,75.80
2023-01-08T09:46:58.825Z,75.80
2023-01-08T09:49:38.985Z,76.10
2023-01-08T09:52:10.243Z,75.70
2023-01-08T09:54:37.865Z,74.60
2023-01-08T09:57:06.194Z,74.30
2023-01-08T09:59:33.920Z,74.10
2023-01-08T10:02:02.307Z,73.70
2023-01-08T10:04:30.618Z,73.90
2023-01-08T10:07:12.717Z,74.50
2023-01-08T10:09:41.004Z,74.90
2023-01-08T10:12:13.064Z,75.10
2023-01-08T10:14:48.350Z,74.30
2023-01-08T10:17:39.712Z,72.80
2023-01-08T10:20:22.732Z,71.60
2023-01-08T10:22:54.478Z,70.10
2023-01-08T10:25:28.434Z,69.00
2023-01-08T10:28:01.834Z,68.60
2023-01-08T10:30:37.648Z,68.20
2023-01-08T10:33:34.306Z,67.60
2023-01-08T10:36:09.526Z,66.80
2023-01-08T10:38:48.497Z,66.40
2023-01-08T10:41:18.218Z,66.70
2023-01-08T10:43:48.933Z,67.40
2023-01-08T10:46:28.441Z,68.00
2023-01-08T10:49:00.564Z,68.70
2023-01-08T10:51:30.488Z,69.20
2023-01-08T10:54:24.133Z,69.60
2023-01-08T10:56:51.932Z,69.90
2023-01-08T10:59:21.485Z,69.80
2023-01-08T11:01:52.402Z,69.90
2023-01-08T11:04:34.246Z,70.10
2023-01-08T11:07:03.755Z,70.20
2023-01-08T11:09:48.047Z,70.10
2023-01-08T11:12:43.471Z,70.10
2023-01-08T11:15:20.261Z,70.30
2023-01-08T11:17:48.005Z,70.40
2023-01-08T11:20:35.323Z,70.40
2023-01-08T11:23:25.675Z,70.60
2023-01-08T11:26:11.468Z,70.70
2023-01-08T11:29:18.782Z,70.70
2023-01-08T11:32:02.688Z,70.70
2023-01-08T11:34:39.353Z,70.50
2023-01-08T11:37:20.041Z,70.60
2023-01-08T11:39:48.441Z,70.20
2023-01-08T11:42:19.164Z,70.30
2023-01-08T11:44:58.297Z,70.50
2023-01-08T11:47:47.658Z,70.70
2023-01-08T11:50:35.728Z,70.60
2023-01-08T11:53:12.963Z,70.50
2023-01-08T11:56:02.125Z,70.50
2023-01-08T11:59:01.529Z,70.70
2023-01-08T12:01:41.850Z,70.50
2023-01-08T12:04:32.917Z,70.30
2023-01-08T12:07:08.459Z,70.30
2023-01-08T12:09:50.088Z,70.30
2023-01-08T12:12:23.498Z,70.30
2023-01-08T12:15:10.027Z,70.30
2023-01-08T12:18:04.854Z,70.20
2023-01-08T12:20:37.403Z,70.20
2023-01-08T12:23:23.882Z,70.00
2023-01-08T12:26:07.853Z,69.90
2023-01-08T12:28:53.531Z,69.90
2023-01-08T12:31:33.843Z,69.90
2023-01-08T12:34:08.095Z,69.80
2023-01-08T12:36:48.082Z,69.80
2023-01-08T12:39:34.146Z,69.90
2023-01-08T12:42:13.476Z,70.10
2023-01-08T12:44:41.690Z,70.10
2023-01-08T12:47:16.520Z,70.10
2023-01-08T12:50:26.326Z,70.20
2023-01-08T12:53:00.292Z,70.30
2023-01-08T12:56:02.668Z,70.20
2023-01-08T12:59:09.832Z,69.90
2023-01-08T13:01:46.018Z,70.00
2023-01-08T13:04:14.547Z,69.90
2023-01-08T13:07:05.176Z,70.00
2023-01-08T13:09:33.737Z,70.20
2023-01-08T13:12:01.732Z,70.10
2023-01-08T13:14:42.250Z,70.10
2023-01-08T13:17:21.677Z,70.20
2023-01-08T13:20:00.607Z,70.30
2023-01-08T13:22:34.196Z,70.00
2023-01-08T13:25:17.383Z,70.20
2023-01-08T13:27:46.479Z,70.40
2023-01-08T13:30:42.940Z,70.30
2023-01-08T13:33:36.519Z,70.60
2023-01-08T13:36:24.670Z,70.80
2023-01-08T13:39:07.125Z,70.90
2023-01-08T13:41:39.036Z,70.90
2023-01-08T13:44:22.738Z,71.00
2023-01-08T13:47:21.591Z,71.00
2023-01-08T13:49:53.337Z,70.80
2023-01-08T13:52:30.804Z,70.70
2023-01-08T13:55:00.181Z,70.90
2023-01-08T13:57:38.390Z,71.00
2023-01-08T14:00:09.605Z,71.20
2023-01-08T14:02:50.729Z,71.20
2023-01-08T14:05:23.590Z,71.20
2023-01-08T14:07:52.054Z,71.10
2023-01-08T14:10:20.608Z,71.10
2023-01-08T14:12:49.326Z,71.10
2023-01-08T14:15:27.718Z,71.00
2023-01-08T14:17:57.409Z,70.90
2023-01-08T14:20:34.954Z,70.90
2023-01-08T14:23:09.232Z,71.00
2023-01-08T14:25:37.281Z,71.00
2023-01-08T14:28:06.772Z,71.00
2023-01-08T14:30:35.903Z,71.00
2023-01-08T14:33:04.395Z,71.20
2023-01-08T14:35:36.156Z,71.40
2023-01-08T14:38:05.921Z,71.50
2023-01-08T14:40:40.689Z,71.50
2023-01-08T14:43:12.554Z,71.40
2023-01-08T14:45:49.860Z,71.20
2023-01-08T14:48:42.011Z,71.20
2023-01-08T14:51:13.919Z,71.30
2023-01-08T14:53:48.321Z,71.40
2023-01-08T14:59:48.203Z,71.50
2023-01-08T15:02:30.142Z,71.50
2023-01-08T15:05:03.111Z,71.60
2023-01-08T15:07:31.126Z,71.80
2023-01-08T15:10:04.514Z,71.80
2023-01-08T15:12:32.654Z,71.80
2023-01-08T15:15:11.681Z,71.90
2023-01-08T15:17:41.572Z,72.00
2023-01-08T15:20:19.423Z,72.00
2023-01-08T15:22:47.378Z,72.10
2023-01-08T15:25:29.781Z,72.10
2023-01-08T15:28:03.292Z,72.20
2023-01-08T15:30:46.434Z,72.10
2023-01-08T15:33:24.148Z,72.10
2023-01-08T15:35:52.820Z,72.10
2023-01-08T15:38:21.412Z,72.10
2023-01-08T15:40:50.274Z,72.20
2023-01-08T15:43:19.142Z,72.20
2023-01-08T15:45:49.039Z,72.20
2023-01-08T15:48:16.960Z,72.20
2023-01-08T15:50:45.676Z,72.20
2023-01-08T15:53:18.859Z,72.30
2023-01-08T15:55:47.461Z,72.50
2023-01-08T15:58:17.175Z,72.60
2023-01-08T16:00:46.459Z,72.70
2023-01-08T16:03:15.523Z,72.80
2023-01-08T16:05:43.713Z,72.80
2023-01-08T16:08:12.504Z,72.70
2023-01-08T16:10:41.743Z,72.60
2023-01-08T16:13:11.991Z,72.50
2023-01-08T16:15:40.683Z,72.40
2023-01-08T16:18:09.034Z,72.30
2023-01-08T16:20:37.978Z,72.20
2023-01-08T16:23:05.852Z,72.50
2023-01-08T16:25:34.259Z,72.60
2023-01-08T16:28:03.647Z,72.70
2023-01-08T16:30:32.605Z,72.80
2023-01-08T16:33:00.831Z,72.70
2023-01-08T16:35:29.701Z,72.70
2023-01-08T16:38:00.320Z,72.60
2023-01-08T16:40:28.981Z,72.60
2023-01-08T16:43:04.775Z,72.60
2023-01-08T16:45:33.077Z,72.60
2023-01-08T16:48:03.461Z,72.60
2023-01-08T16:50:33.863Z,72.60
2023-01-08T16:53:04.699Z,72.60
2023-01-08T16:55:34.687Z,72.60
2023-01-08T16:58:03.143Z,72.60
2023-01-08T17:00:32.782Z,72.60
2023-01-08T17:03:01.920Z,72.60
2023-01-08T17:05:30.506Z,72.50
2023-01-08T17:07:59.046Z,72.60
2023-01-08T17:10:28.127Z,72.60
2023-01-08T17:12:56.158Z,72.60
2023-01-08T17:15:25.029Z,72.60
2023-01-08T17:17:53.396Z,72.60
2023-01-08T17:20:21.946Z,72.60
2023-01-08T17:22:50.523Z,72.70
2023-01-08T17:25:20.728Z,72.80
2023-01-08T17:27:49.260Z,72.80
2023-01-08T17:30:19.428Z,72.80
2023-01-08T17:32:47.699Z,72.80
2023-01-08T17:35:17.908Z,72.80
2023-01-08T17:37:45.752Z,72.80
2023-01-08T17:40:14.469Z,72.80
2023-01-08T17:42:42.806Z,72.70
2023-01-08T17:45:12.215Z,72.70
2023-01-08T17:47:41.018Z,72.70
2023-01-08T17:50:10.616Z,72.70
2023-01-08T17:52:39.060Z,72.80
2023-01-08T17:55:08.648Z,72.80
2023-01-08T17:57:37.569Z,72.80
2023-01-08T18:00:07.626Z,72.80
2023-01-08T18:02:37.107Z,72.70
2023-01-08T18:05:07.103Z,72.70
2023-01-08T18:07:35.805Z,72.70
2023-01-08T18:10:08.739Z,72.70
2023-01-08T18:12:37.593Z,72.80
2023-01-08T18:15:08.186Z,72.70
2023-01-08T18:17:36.480Z,72.80
2023-01-08T18:20:05.043Z,72.80
2023-01-08T18:22:33.440Z,72.80
2023-01-08T18:25:03.476Z,72.80
2023-01-08T18:27:31.848Z,72.80
2023-01-08T18:30:00.410Z,72.90
2023-01-08T18:32:29.429Z,72.90
2023-01-08T18:34:59.140Z,72.90
2023-01-08T18:37:30.922Z,73.00
2023-01-08T18:40:00.813Z,73.00
2023-01-08T18:42:31.539Z,73.00
2023-01-08T18:45:01.068Z,73.00
2023-01-08T18:47:29.225Z,73.00
2023-01-08T18:54:24.568Z,73.00
2023-01-08T18:56:52.959Z,72.80
2023-01-08T18:59:21.815Z,72.90
2023-01-08T19:01:52.699Z,73.00
2023-01-08T19:04:21.529Z,73.00
2023-01-08T19:06:52.113Z,73.00
2023-01-08T19:09:21.674Z,73.00
2023-01-08T19:11:49.879Z,73.10
2023-01-08T19:14:18.659Z,73.00
2023-01-08T19:16:51.906Z,73.00
2023-01-08T19:19:21.529Z,73.00
2023-01-08T19:21:49.815Z,73.00
2023-01-08T19:24:18.469Z,73.00
2023-01-08T19:26:47.098Z,73.00
2023-01-08T19:29:15.757Z,73.00
2023-01-08T19:31:44.460Z,72.90
2023-01-08T19:34:14.031Z,73.00
2023-01-08T19:36:43.765Z,73.00
2023-01-08T19:39:13.653Z,73.00
2023-01-08T19:42:00.841Z,73.00
2023-01-08T19:44:29.607Z,73.00
2023-01-08T19:47:00.030Z,72.90
2023-01-08T19:49:29.552Z,72.90
2023-01-08T19:51:57.907Z,72.90
2023-01-08T19:54:26.387Z,72.90
2023-01-08T19:56:55.420Z,72.90
2023-01-08T19:59:25.110Z,72.90
2023-01-08T20:01:53.785Z,73.00
2023-01-08T20:04:23.086Z,72.90
2023-01-08T20:06:52.912Z,72.90
2023-01-08T20:09:25.537Z,73.00
2023-01-08T20:11:54.726Z,73.00
2023-01-08T20:14:25.301Z,73.00
2023-01-08T20:16:53.973Z,73.10
2023-01-08T20:19:22.656Z,73.10
2023-01-08T20:21:51.586Z,73.10
2023-01-08T20:24:20.827Z,73.10
2023-01-08T20:26:49.437Z,73.10
2023-01-08T20:29:18.917Z,73.10
2023-01-08T20:31:50.638Z,73.10
2023-01-08T20:34:19.635Z,73.10
2023-01-08T20:36:48.207Z,73.10
2023-01-08T20:39:18.508Z,73.10
2023-01-08T20:41:55.526Z,73.10
2023-01-08T20:44:30.218Z,73.20
2023-01-08T20:46:59.180Z,73.20
2023-01-08T20:49:28.275Z,73.30
2023-01-08T20:51:59.515Z,73.30
2023-01-08T20:54:30.187Z,73.50
2023-01-08T20:56:59.719Z,73.60
2023-01-08T20:59:30.156Z,73.40
2023-01-08T21:01:58.895Z,73.30
2023-01-08T21:04:28.712Z,73.30
2023-01-08T21:07:43.232Z,73.30
2023-01-08T21:10:12.471Z,73.30
2023-01-08T21:12:40.403Z,73.20
2023-01-08T21:15:09.121Z,73.20
2023-01-08T21:17:37.625Z,73.40
2023-01-08T21:20:07.243Z,73.50
2023-01-08T21:22:35.242Z,73.50
2023-01-08T21:25:03.486Z,73.50
2023-01-08T21:27:31.259Z,73.50
2023-01-08T21:29:59.399Z,73.50
2023-01-08T21:32:27.164Z,73.50
2023-01-08T21:34:55.321Z,73.50
2023-01-08T21:37:23.184Z,73.50
2023-01-08T21:39:51.887Z,73.40
2023-01-08T21:42:37.990Z,73.50
2023-01-08T21:45:24.869Z,73.50
2023-01-08T21:47:54.016Z,73.50
2023-01-08T21:50:23.744Z,73.50
2023-01-08T21:53:10.071Z,73.50
2023-01-08T21:55:38.092Z,73.50
2023-01-08T21:58:05.863Z,73.50
2023-01-08T22:00:34.477Z,73.50
2023-01-08T22:03:02.252Z,73.20
2023-01-08T22:05:30.240Z,73.10
2023-01-08T22:07:57.902Z,73.20
2023-01-08T22:10:26.000Z,73.30
2023-01-08T22:12:53.851Z,73.50
2023-01-08T22:15:22.086Z,73.60
2023-01-08T22:17:49.807Z,73.60
2023-01-08T22:20:17.940Z,73.70
2023-01-08T22:22:49.273Z,73.80
2023-01-08T22:25:17.473Z,73.80
2023-01-08T22:27:45.278Z,73.90
2023-01-08T22:30:13.427Z,74.00
2023-01-08T22:32:41.299Z,74.10
2023-01-08T22:35:09.470Z,74.00
2023-01-08T22:37:37.149Z,74.00
2023-01-08T22:40:05.841Z,73.90
2023-01-08T22:42:33.480Z,73.90
2023-01-08T22:45:01.558Z,74.00
2023-01-08T22:47:29.275Z,74.10
2023-01-08T22:49:57.400Z,74.00
2023-01-08T22:52:25.185Z,73.90
2023-01-08T22:54:55.097Z,73.90
2023-01-08T22:57:22.735Z,74.00
2023-01-08T22:59:50.784Z,74.00
2023-01-08T23:02:24.440Z,73.90
2023-01-08T23:04:53.161Z,73.90
2023-01-08T23:07:21.499Z,73.80
2023-01-08T23:09:49.705Z,73.80
2023-01-08T23:12:17.404Z,73.80
2023-01-08T23:14:46.353Z,73.80
2023-01-08T23:17:14.448Z,73.80
2023-01-08T23:19:42.410Z,73.80
2023-01-08T23:22:10.113Z,73.80
2023-01-08T23:24:38.103Z,73.80
2023-01-08T23:27:06.522Z,73.90
2023-01-08T23:29:34.605Z,73.80
2023-01-08T23:32:02.304Z,73.80
2023-01-08T23:34:30.400Z,73.90
2023-01-08T23:36:58.103Z,73.80
2023-01-08T23:39:28.405Z,73.50
2023-01-08T23:41:56.643Z,73.60
2023-01-08T23:44:24.893Z,73.70
2023-01-08T23:46:52.591Z,74.00
2023-01-08T23:49:20.623Z,74.10
2023-01-08T23:51:48.319Z,74.20
2023-01-08T23:54:16.960Z,74.20
2023-01-08T23:56:45.006Z,74.30
2023-01-08T23:59:14.069Z,74.40
